Guaraita, Brazil
Current Conditions -  °F | °C
As of 7:35 AM on Sunday 26 Oct 2014 (Local Time) from SBAN Reporting Station
Broken Clouds Broken Clouds  
Wind Chill: 63°   Ceiling: 300
Heat Index: 63°   Visibility: 5mi
Dew Point: 61°   Wind: 9mph
Humidity: 94%   Direction: 130°SE
Pressure: 30.03"   Gusts: NA
Location:  15.61°S, 50.02°W
Report Text: SBAN 260935Z 13008KT 8000 BKN003 BKN100 17/16 Q1017
Loading
Personal Weather Stations






























Interactive Weather Map
Tropical Storm Tracking
New forecast layout! Learn more

10-Day Weather Forecast

Advertisements
Track Severe Weather on mobile